Latest Weather Observations for Clare

IDS60801

Issued at 3:41 pm CDT Thursday 28 January 2021 (issued every 10 minutes, with the page automatically refreshed every 10 minutes)

About weather observations | Map of weather stations | Latest weather observations for SA | Other Formats
Station Details ID: 021131 Name: CLARE HIGH SCHOOL Lat: -33.82 Lon: 138.59 Height: 395.0 m
Data from the previous 72 hours. | See also: Recent months at Clare
Date/Time
CDT
Temp
°C
App
Temp
°C
Dew
Point
°C
Rel
Hum
%
Delta-T
°C
Wind Press
QNH
hPa
Press
MSL
hPa
Rain since
9am
mm
Dir  Spd
km/h
Gust
km/h
Spd
kts
Gust
kts
28/03:30pm 31.8 28.5 8.1 23 13.4 SSW 15 26 8 14 1009.1 1007.2 0.0
28/03:00pm 31.0 28.3 7.5 23 13.1 SSW 11 33 6 18 1009.4 1007.5 0.0
28/02:30pm 30.7 27.7 7.8 24 12.8 SW 13 24 7 13 1010.0 1008.1 0.0
28/02:00pm 31.0 28.6 8.7 25 12.6 SW 11 20 6 11 1010.3 1008.4 0.0
28/01:30pm 29.9 27.4 8.3 26 12.1 W 11 19 6 10 1010.6 1008.7 0.0
28/01:00pm 30.1 28.0 9.6 28 11.7 SSW 11 20 6 11 1010.9 1009.0 0.0
28/12:30pm 29.1 27.4 9.8 30 11.0 SSE 9 17 5 9 1011.2 1009.3 0.0
28/12:00pm 28.8 26.9 9.0 29 11.1 W 9 15 5 8 1011.5 1009.6 0.0
28/11:30am 28.2 26.8 9.0 30 10.8 E 6 13 3 7 1011.8 1009.9 0.0
28/11:00am 27.3 26.1 9.6 33 10.0 S 6 11 3 6 1011.9 1010.0 0.0
28/10:30am 25.8 24.6 9.6 36 9.1 SE 6 11 3 6 1011.9 1010.0 0.0
28/10:00am 24.2 22.3 9.0 38 8.4 NNE 9 15 5 8 1011.8 1009.9 0.0
28/09:30am 23.2 21.2 7.3 36 8.4 ENE 7 11 4 6 1012.5 1010.6 0.0
28/09:00am 21.5 19.3 6.2 37 7.9 ENE 7 13 4 7 1012.5 1010.6 0.0
28/08:30am 20.5 17.7 5.3 37 7.6 ENE 9 15 5 8 1012.2 1010.4 0.0
28/08:00am 19.3 16.6 5.7 41 6.8 NE 9 15 5 8 1012.1 1010.3 0.0
28/07:30am 18.0 16.7 5.9 45 6.1 ENE 2 7 1 4 1012.2 1010.4 0.0
28/07:00am 17.7 15.4 5.9 46 5.9 E 7 11 4 6 1011.8 1009.9 0.0
28/06:30am 17.6 15.5 5.9 46 5.8 ENE 6 9 3 5 1012.0 1010.1 0.0
28/06:00am 17.3 15.5 7.1 51 5.2 ENE 6 9 3 5 1011.9 1010.0 0.0
28/05:30am 17.2 16.3 7.8 54 4.9 ENE 2 9 1 5 1011.7 1009.8 0.0
28/05:00am 17.8 16.0 7.2 50 5.4 ENE 6 9 3 5 1011.5 1009.6 0.0
28/04:30am 18.2 16.2 7.3 49 5.6 E 7 9 4 5 1011.5 1009.6 0.0
28/04:00am 18.5 16.9 7.9 50 5.5 ENE 6 13 3 7 1011.1 1009.2 0.0
28/03:30am 18.7 16.9 7.8 49 5.7 E 7 11 4 6 1011.3 1009.4 0.0
28/03:00am 18.7 16.9 8.1 50 5.6 E 7 15 4 8 1011.5 1009.6 0.0
28/02:30am 18.7 17.2 8.4 51 5.4 E 6 13 3 7 1012.1 1010.3 0.0
28/02:00am 18.8 16.8 8.5 51 5.4 ENE 9 15 5 8 1011.8 1009.9 0.0
28/01:30am 19.3 17.4 9.2 52 5.4 ENE 9 15 5 8 1011.8 1009.9 0.0
28/01:00am 19.8 17.9 9.1 50 5.8 ENE 9 19 5 10 1011.8 1009.9 0.0
28/12:30am 19.7 17.9 9.6 52 5.5 ENE 9 13 5 7 1012.2 1010.4 0.0
28/12:00am 19.9 18.5 9.5 51 5.6 E 7 15 4 8 1012.1 1010.3 0.0
 
Date/Time
CDT
Temp
°C
App
Temp
°C
Dew
Point
°C
Rel
Hum
%
Delta-T
°C
Wind Press
QNH
hPa
Press
MSL
hPa
Rain since
9am
mm
Dir  Spd
km/h
Gust
km/h
Spd
kts
Gust
kts
27/11:30pm 20.3 18.5 9.5 50 5.9 E 9 13 5 7 1012.2 1010.4 0.0
27/11:00pm 20.3 18.1 9.5 50 5.9 ENE 11 17 6 9 1012.6 1010.7 0.0
27/10:30pm 20.5 18.8 9.7 50 5.9 NE 9 15 5 8 1012.7 1010.8 0.0
27/10:00pm 20.8 18.7 9.7 49 6.1 ENE 11 19 6 10 1012.6 1010.7 0.0
27/09:30pm 21.1 19.4 9.7 48 6.2 ENE 9 15 5 8 1012.1 1010.3 0.0
27/09:00pm 21.4 19.3 9.9 48 6.3 NE 11 17 6 9 1011.9 1010.0 0.0
27/08:30pm 21.8 19.8 10.0 47 6.5 ENE 11 19 6 10 1011.5 1009.6 0.0
27/08:00pm 22.2 19.4 10.0 46 6.8 ENE 15 22 8 12 1011.5 1009.6 0.0
27/07:30pm 22.6 19.9 10.4 46 6.8 ENE 15 24 8 13 1011.2 1009.3 0.0
27/07:00pm 23.1 20.4 10.5 45 7.1 NE 15 20 8 11 1010.8 1008.9 0.0
27/06:30pm 23.5 20.9 10.6 44 7.3 ENE 15 22 8 12 1010.6 1008.7 0.0
27/06:00pm 24.3 21.9 10.2 41 7.9 ENE 13 20 7 11 1011.2 1009.3 0.0
27/05:30pm 24.2 22.3 10.5 42 7.7 ENE 11 19 6 10 1011.1 1009.2 0.0
27/05:00pm 24.2 21.5 10.5 42 7.7 E 15 22 8 12 1010.9 1009.0 0.0
27/04:30pm 24.0 21.6 9.9 41 7.9 ENE 13 24 7 13 1011.3 1009.4 0.0
27/04:00pm 23.8 21.0 10.1 42 7.7 ENE 15 24 8 13 1011.6 1009.7 0.0
27/03:30pm 24.3 22.1 10.9 43 7.6 NE 13 28 7 15 1011.3 1009.4 0.0
27/03:00pm 23.4 20.8 10.8 45 7.1 ESE 15 22 8 12 1011.4 1009.5 0.0
27/02:30pm 23.2 20.6 10.6 45 7.1 ENE 15 26 8 14 1011.6 1009.7 0.0
27/02:00pm 23.8 20.5 10.8 44 7.4 E 19 30 10 16 1011.6 1009.7 0.0
27/01:30pm 22.7 19.7 10.8 47 6.7 E 17 26 9 14 1012.1 1010.3 0.0
27/01:00pm 23.1 20.7 11.5 48 6.6 E 15 24 8 13 1012.1 1010.3 0.0
27/12:30pm 21.3 18.4 11.1 52 5.7 NNE 17 24 9 13 1012.3 1010.5 0.0
27/12:00pm 20.5 17.7 11.4 56 5.1 ENE 17 28 9 15 1012.3 1010.5 0.0
27/11:30am 19.7 15.9 11.2 58 4.7 NE 22 32 12 17 1012.8 1010.9 0.0
27/11:00am 18.8 15.6 11.1 61 4.3 NE 19 32 10 17 1012.7 1010.8 0.0
27/10:30am 17.7 14.8 11.0 65 3.7 ENE 17 35 9 19 1012.7 1010.8 0.0
27/10:00am 16.7 12.7 10.5 67 3.4 NE 22 35 12 19 1012.8 1010.9 0.0
27/09:30am 16.0 12.3 10.1 68 3.2 NE 20 35 11 19 1013.0 1011.1 0.0
27/09:00am 15.3 11.8 10.1 71 2.8 ENE 19 32 10 17 1012.7 1010.8 0.0
27/08:30am 14.5 11.3 9.9 74 2.4 ENE 17 33 9 18 1012.3 1010.5 0.0
27/08:00am 13.9 10.6 9.7 76 2.2 ENE 17 24 9 13 1012.0 1010.1 0.0
27/07:30am 14.1 12.0 9.7 75 2.3 E 11 19 6 10 1011.7 1009.8 0.0
27/07:00am 13.9 11.0 9.5 75 2.3 E 15 28 8 15 1011.5 1009.6 0.0
27/06:30am 14.1 11.6 9.7 75 2.3 ENE 13 20 7 11 1011.3 1009.4 0.0
27/06:00am 14.3 11.9 9.9 75 2.3 ENE 13 20 7 11 1010.7 1008.8 0.0
27/05:30am 14.4 12.4 10.0 75 2.3 ENE 11 19 6 10 1010.6 1008.7 0.0
27/05:00am 14.6 12.3 10.4 76 2.2 ENE 13 20 7 11 1010.4 1008.5 0.0
27/04:30am 14.2 11.9 10.4 78 2.0 ESE 13 19 7 10 1010.1 1008.2 0.0
27/04:00am 14.2 11.9 10.4 78 2.0 ESE 13 20 7 11 1010.3 1008.4 0.0
27/03:30am 14.2 11.8 10.2 77 2.1 ESE 13 24 7 13 1010.4 1008.5 0.0
27/03:00am 14.4 12.7 10.0 75 2.3 ESE 9 17 5 9 1010.4 1008.5 0.0
27/02:30am 14.4 12.4 10.0 75 2.3 E 11 20 6 11 1010.5 1008.6 0.0
27/02:00am 14.4 12.3 9.6 73 2.5 E 11 20 6 11 1010.3 1008.4 0.0
27/01:30am 14.2 12.0 9.2 72 2.6 ESE 11 19 6 10 1010.5 1008.6 0.0
27/01:00am 14.2 12.7 9.2 72 2.6 ESE 7 13 4 7 1010.5 1008.6 0.0
27/12:30am 14.0 12.6 9.4 74 2.4 E 7 13 4 7 1010.4 1008.5 0.0
27/12:00am 14.1 12.8 10.1 77 2.1 SE 7 13 4 7 1010.3 1008.4 0.0
 
Date/Time
CDT
Temp
°C
App
Temp
°C
Dew
Point
°C
Rel
Hum
%
Delta-T
°C
Wind Press
QNH
hPa
Press
MSL
hPa
Rain since
9am
mm
Dir  Spd
km/h
Gust
km/h
Spd
kts
Gust
kts
26/11:30pm 14.3 13.6 11.5 83 1.5 ESE 6 9 3 5 1010.2 1008.3 0.0
26/11:00pm 14.7 14.0 11.5 81 1.7 SSE 6 7 3 4 1010.2 1008.3 0.0
26/10:30pm 15.2 13.9 11.4 78 2.1 S 9 11 5 6 1010.1 1008.2 0.0
26/10:00pm 15.7 14.8 11.3 75 2.4 S 7 13 4 7 1010.0 1008.1 0.0
26/09:30pm 16.0 15.2 11.6 75 2.4 S 7 13 4 7 1009.8 1007.8 0.0
26/09:00pm 16.4 15.2 11.6 73 2.7 S 9 13 5 7 1009.3 1007.4 0.0
26/08:30pm 17.1 16.4 12.0 72 2.9 S 7 13 4 7 1009.3 1007.4 0.0
26/08:00pm 18.0 16.9 12.0 68 3.4 S 9 15 5 8 1008.8 1006.9 0.0
26/07:30pm 18.4 16.7 12.4 68 3.4 SSW 13 20 7 11 1008.5 1006.6 0.0
26/07:00pm 19.4 17.8 12.7 65 3.8 S 13 20 7 11 1008.2 1006.3 0.0
26/06:30pm 19.1 17.5 12.8 67 3.6 S 13 22 7 12 1008.0 1006.1 0.0
26/06:00pm 19.6 18.1 13.1 66 3.8 SSW 13 20 7 11 1007.9 1006.0 0.0
26/05:30pm 19.8 18.0 13.3 66 3.8 SSW 15 24 8 13 1007.8 1005.9 0.0
26/05:00pm 20.0 18.0 13.9 68 3.6 SSW 17 24 9 13 1007.8 1005.9 0.0
26/04:30pm 20.1 18.1 14.0 68 3.6 SSW 17 30 9 16 1007.8 1005.9 0.0
26/04:00pm 20.7 19.8 14.8 69 3.5 SSW 13 22 7 12 1007.8 1005.9 0.0
26/03:30pm 20.7 20.0 15.3 71 3.3 SSW 13 22 7 12 1007.9 1006.0 0.0
26/03:00pm 19.1 18.0 14.4 74 2.8 SSE 13 20 7 11 1007.9 1006.0 0.0
26/02:30pm 20.2 19.4 15.2 73 3.0 SSE 13 20 7 11 1007.9 1006.0 0.0
26/02:00pm 18.3 16.5 14.4 78 2.3 SSE 17 24 9 13 1007.9 1006.0 0.0
26/01:30pm 18.2 17.3 15.8 86 1.4 S 15 24 8 13 1007.9 1006.0 0.0
26/01:00pm 17.4 17.0 17.2 99 0.1 SSE 15 24 8 13 1007.8 1005.9 0.0
26/12:30pm 17.3 16.9 17.1 99 0.1 S 15 24 8 13 1007.7 1005.8 0.0
26/12:00pm 18.2 18.5 17.9 98 0.2 S 13 20 7 11 1007.4 1005.4 0.0
26/11:30am 18.1 17.5 17.6 97 0.3 S 17 24 9 13 1007.2 1005.2 0.0
26/11:00am 17.1 16.6 16.9 99 0.1 S 15 26 8 14 1007.2 1005.2 0.0
26/10:30am 16.9 16.8 16.9 100 0.0 S 13 22 7 12 1006.9 1005.0 0.0
26/10:00am 17.0 16.9 17.0 100 0.0 SSE 13 22 7 12 1006.7 1004.8 0.0
26/09:30am 17.3 17.0 17.3 100 0.0 S 15 24 8 13 1006.6 1004.7 0.0
26/09:00am 17.9 19.0 17.9 100 0.0 SSE 9 20 5 11 1006.3 1004.4 11.0
26/08:30am 17.7 18.3 17.7 100 0.0 SSE 11 17 6 9 1005.9 1004.0 11.0
26/08:00am 17.6 18.5 17.6 100 0.0 SSE 9 17 5 9 1005.6 1003.7 11.0
26/07:30am 17.6 18.2 17.6 100 0.0 S 11 19 6 10 1005.1 1003.1 11.0
26/07:00am 18.1 19.7 17.9 99 0.1 SSW 6 9 3 5 1004.7 1002.7 10.6
26/06:30am 18.2 19.8 17.9 98 0.2 SSE 6 11 3 6 1004.3 1002.4 10.4
26/06:00am 18.1 20.0 17.6 97 0.3 SSE 4 9 2 5 1004.1 1002.2 10.4
26/05:30am 18.2 19.6 17.7 97 0.3 S 7 13 4 7 1003.8 1001.9 10.4
26/05:00am 18.3 19.7 17.8 97 0.3 S 7 13 4 7 1003.6 1001.7 10.4
26/04:30am 18.5 19.4 17.5 94 0.6 S 9 15 5 8 1003.3 1001.4 10.4
26/04:00am 18.6 19.2 16.8 89 1.1 SSE 9 15 5 8 1002.9 1000.9 10.4
26/03:30am 18.5 19.3 17.2 92 0.8 SSE 9 13 5 7 1003.0 1001.0 10.4
26/03:00am 18.4 19.5 18.1 98 0.2 S 9 13 5 7 1003.4 1001.5 10.4
26/02:30am 18.4 19.5 18.1 98 0.2 S 9 15 5 8 1003.6 1001.7 10.4
26/02:00am 18.5 19.7 18.3 99 0.1 SSE 9 13 5 7 1003.9 1002.0 10.4
26/01:30am 18.6 19.9 18.4 99 0.1 SSE 9 13 5 7 1003.9 1002.0 10.4
26/01:00am 18.9 20.3 18.7 99 0.1 SSE 9 13 5 7 1003.8 1001.9 10.4
26/12:30am 18.9 19.9 18.7 99 0.1 SSE 11 19 6 10 1003.7 1001.8 10.4
26/12:00am 18.9 20.4 18.9 100 0.0 S 9 15 5 8 1003.6 1001.7 10.4
 
Date/Time
CDT
Temp
°C
App
Temp
°C
Dew
Point
°C
Rel
Hum
%
Delta-T
°C
Wind Press
QNH
hPa
Press
MSL
hPa
Rain since
9am
mm
Dir  Spd
km/h
Gust
km/h
Spd
kts
Gust
kts
25/11:30pm 19.0 20.5 19.0 100 0.0 SSW 9 19 5 10 1003.7 1001.8 10.4
25/11:00pm 18.8 20.6 18.8 100 0.0 SW 7 13 4 7 1003.5 1001.6 10.4
25/10:30pm 19.1 20.3 19.1 100 0.0 SSW 11 20 6 11 1003.5 1001.6 10.4
25/10:00pm 19.4 21.1 19.4 100 0.0 SW 9 20 5 11 1003.1 1001.1 10.4
25/09:30pm 19.9 21.1 19.9 100 0.0 SSW 13 24 7 13 1002.4 1000.4 10.4
25/09:00pm 20.5 22.0 20.5 100 0.0 SSW 13 24 7 13 1001.8 999.8 10.4
25/08:30pm 20.8 23.2 20.8 100 0.0 SSW 9 15 5 8 1001.2 999.3 10.4
25/08:00pm 21.2 23.0 21.2 100 0.0 SW 13 22 7 12 1000.8 998.8 10.2
25/07:30pm 22.3 25.5 22.3 100 0.0 W 9 17 5 9 1000.1 998.1 9.8
25/07:00pm 22.8 25.8 22.6 99 0.1 W 11 19 6 10 1000.2 998.2 9.8
25/06:30pm 23.0 25.4 22.2 95 0.5 WNW 13 20 7 11 1000.1 998.1 9.8
25/06:00pm 23.1 26.6 22.9 99 0.1 NNW 9 13 5 7 999.9 997.9 9.8
25/05:30pm 22.6 26.4 22.4 99 0.1 NNW 6 9 3 5 999.9 997.9 9.2
25/05:00pm 22.0 25.4 22.0 100 0.0 NNW 7 15 4 8 999.9 997.9 9.2
25/04:30pm 21.5 24.3 21.5 100 0.0 NE 9 13 5 7 1000.4 998.4 9.0
25/04:00pm 20.5 24.5 20.5 100 0.0 CALM 0 7 0 4 1001.3 999.4 7.4

Other formats

Comma delimited format used in spreadsheet applications
http://www.bom.gov.au/fwo/IDS60801/IDS60801.95667.axf

JavaScript Object Notation format (JSON) in row-major order
http://www.bom.gov.au/fwo/IDS60801/IDS60801.95667.json

Data quality

Most of these data are generated automatically and are frequently updated. Quality checks on data are not normally performed. It is possible for incorrect values to appear. Refer to information at About Latest Weather Observations and please check the disclaimer before using these data.